createdAt,value
2018-12-24T00:22:04.080Z,50.33
2018-12-24T00:39:27.528Z,48.56
2018-12-24T00:42:03.505Z,48.80
2018-12-24T00:51:28.369Z,48.05
2018-12-24T00:58:15.859Z,46.99
2018-12-24T01:00:48.924Z,46.50
2018-12-24T01:03:22.008Z,45.70
2018-12-24T01:05:54.902Z,46.97
2018-12-24T01:08:28.277Z,46.37
2018-12-24T01:11:01.681Z,44.91
2018-12-24T01:13:34.634Z,45.36
2018-12-24T01:16:07.964Z,46.77
2018-12-24T01:18:40.913Z,44.94
2018-12-24T01:21:14.364Z,45.44
2018-12-24T01:23:47.497Z,44.94
2018-12-24T01:26:20.657Z,44.46
2018-12-24T01:28:54.023Z,43.80
2018-12-24T01:31:26.995Z,44.17
2018-12-24T01:33:59.926Z,44.95
2018-12-24T01:36:32.932Z,44.92
2018-12-24T01:39:06.535Z,44.46
2018-12-24T01:41:39.995Z,44.92
2018-12-24T01:44:13.492Z,44.81
2018-12-24T01:46:46.627Z,43.74
2018-12-24T01:49:19.769Z,42.98
2018-12-24T01:51:55.620Z,42.68
2018-12-24T01:54:28.839Z,43.20
2018-12-24T01:57:01.974Z,40.50
2018-12-24T01:59:58.282Z,41.61
2018-12-24T02:02:42.312Z,40.12
2018-12-24T02:05:16.724Z,38.31
2018-12-24T02:07:49.898Z,39.78
2018-12-24T02:10:22.755Z,39.59
2018-12-24T02:13:15.456Z,40.89
2018-12-24T02:15:48.335Z,39.76
2018-12-24T02:18:21.289Z,38.84
2018-12-24T02:20:54.393Z,39.18
2018-12-24T02:23:32.537Z,39.43
2018-12-24T02:26:06.100Z,39.12
2018-12-24T02:29:09.453Z,39.05
2018-12-24T02:31:44.186Z,39.05
2018-12-24T02:34:17.177Z,39.17
2018-12-24T02:36:50.185Z,37.70
2018-12-24T02:39:23.056Z,37.83
2018-12-24T02:41:56.030Z,38.21
2018-12-24T02:44:28.992Z,37.80
2018-12-24T02:47:12.881Z,36.67
2018-12-24T02:49:50.348Z,38.12
2018-12-24T02:52:23.464Z,36.32
2018-12-24T02:54:56.702Z,34.96
2018-12-24T02:57:29.969Z,36.67
2018-12-24T03:00:03.087Z,37.29
2018-12-24T03:02:36.201Z,36.10
2018-12-24T03:05:09.422Z,34.33
2018-12-24T03:07:42.585Z,36.38
2018-12-24T03:10:15.705Z,37.64
2018-12-24T03:12:48.771Z,37.96
2018-12-24T03:15:21.865Z,38.72
2018-12-24T03:17:54.865Z,39.27
2018-12-24T03:20:27.801Z,39.12
2018-12-24T03:23:00.988Z,38.00
2018-12-24T03:25:34.295Z,38.61
2018-12-24T03:28:07.124Z,38.01
2018-12-24T03:30:41.306Z,38.05
2018-12-24T03:33:14.431Z,38.67
2018-12-24T03:35:47.720Z,38.83
2018-12-24T03:38:20.677Z,38.65
2018-12-24T03:40:54.078Z,38.57
2018-12-24T03:43:27.142Z,38.27
2018-12-24T03:46:00.693Z,37.17
2018-12-24T03:48:33.722Z,37.52
2018-12-24T03:51:07.081Z,37.03
2018-12-24T03:53:40.174Z,37.14
2018-12-24T03:56:13.249Z,37.48
2018-12-24T03:58:46.685Z,37.31
2018-12-24T04:01:19.615Z,37.32
2018-12-24T04:03:52.565Z,38.05
2018-12-24T04:06:25.594Z,37.93
2018-12-24T04:08:58.838Z,37.65
2018-12-24T04:11:32.353Z,37.32
2018-12-24T04:14:05.570Z,37.17
2018-12-24T04:16:38.516Z,37.58
2018-12-24T04:19:11.680Z,36.64
2018-12-24T04:21:48.690Z,36.45
2018-12-24T04:24:21.725Z,36.28
2018-12-24T04:26:55.501Z,36.85
2018-12-24T04:29:28.695Z,36.95
2018-12-24T04:32:01.865Z,37.51
2018-12-24T04:34:35.362Z,37.56
2018-12-24T04:37:08.529Z,36.48
2018-12-24T04:39:41.632Z,37.12
2018-12-24T04:42:14.668Z,36.79
2018-12-24T04:45:06.993Z,37.50
2018-12-24T04:47:40.295Z,37.88
2018-12-24T04:50:13.147Z,35.78
2018-12-24T04:52:46.228Z,37.04
2018-12-24T04:55:19.447Z,37.20
2018-12-24T04:57:52.462Z,37.09
2018-12-24T05:00:25.639Z,33.89
2018-12-24T05:02:58.890Z,32.34
2018-12-24T05:05:32.532Z,31.82
2018-12-24T05:08:05.697Z,30.46
2018-12-24T05:10:38.681Z,29.51
2018-12-24T05:13:11.777Z,29.94
2018-12-24T05:15:48.099Z,30.79
2018-12-24T05:18:20.989Z,29.30
2018-12-24T05:20:54.512Z,30.03
2018-12-24T05:23:27.696Z,31.42
2018-12-24T05:26:00.753Z,30.50
2018-12-24T05:28:33.647Z,30.87
2018-12-24T05:31:06.568Z,32.06
2018-12-24T05:33:42.008Z,29.73
2018-12-24T05:36:13.830Z,29.12
2018-12-24T05:38:46.931Z,30.50
2018-12-24T05:41:20.179Z,30.98
2018-12-24T05:43:52.919Z,30.25
2018-12-24T05:46:26.028Z,29.92
2018-12-24T05:48:59.039Z,30.11
2018-12-24T05:51:32.414Z,29.40
2018-12-24T05:54:05.491Z,32.87
2018-12-24T05:56:38.773Z,31.73
2018-12-24T05:59:11.786Z,33.04
2018-12-24T06:02:07.154Z,33.15
2018-12-24T06:04:40.198Z,30.69
2018-12-24T06:07:13.705Z,33.34
2018-12-24T06:09:47.256Z,33.98
2018-12-24T06:12:20.344Z,34.62
2018-12-24T06:14:53.510Z,35.46
2018-12-24T06:17:26.497Z,35.16
2018-12-24T06:19:59.762Z,35.29
2018-12-24T06:22:32.876Z,35.95
2018-12-24T06:25:05.970Z,36.47
2018-12-24T06:27:39.180Z,36.08
2018-12-24T06:30:12.614Z,34.60
2018-12-24T06:32:46.115Z,35.07
2018-12-24T06:35:19.150Z,34.96
2018-12-24T06:37:52.101Z,34.76
2018-12-24T06:40:25.158Z,35.18
2018-12-24T06:42:58.516Z,35.05
2018-12-24T06:45:31.638Z,35.72
2018-12-24T06:48:04.737Z,35.76
2018-12-24T06:50:37.804Z,36.24
2018-12-24T06:53:10.798Z,34.83
2018-12-24T06:55:43.946Z,35.23
2018-12-24T06:58:16.938Z,34.90
2018-12-24T07:00:50.308Z,34.70
2018-12-24T07:03:23.398Z,34.96
2018-12-24T07:05:56.519Z,35.49
2018-12-24T07:08:29.689Z,35.33
2018-12-24T07:11:02.835Z,35.33
2018-12-24T07:13:36.172Z,34.79
2018-12-24T07:16:09.294Z,35.82
2018-12-24T07:18:42.362Z,34.77
2018-12-24T07:21:15.308Z,35.25
2018-12-24T07:23:48.289Z,35.76
2018-12-24T07:26:21.396Z,35.49
2018-12-24T07:28:58.999Z,34.67
2018-12-24T07:31:28.659Z,35.83
2018-12-24T07:34:01.857Z,36.08
2018-12-24T07:36:37.301Z,34.83
2018-12-24T07:39:09.896Z,34.80
2018-12-24T07:41:43.174Z,34.70
2018-12-24T07:44:23.910Z,34.87
2018-12-24T07:46:50.675Z,34.99
2018-12-24T07:49:23.789Z,35.08
2018-12-24T07:51:56.796Z,34.68
2018-12-24T07:54:29.969Z,34.52
2018-12-24T07:57:03.278Z,35.09
2018-12-24T08:02:26.338Z,36.12
2018-12-24T08:04:59.543Z,37.78
2018-12-24T08:07:32.559Z,37.54
2018-12-24T08:10:05.621Z,39.61
2018-12-24T08:12:38.747Z,39.23
2018-12-24T08:15:12.154Z,39.50
2018-12-24T08:17:45.422Z,37.61
2018-12-24T08:20:18.678Z,36.48
2018-12-24T08:22:54.652Z,38.69
2018-12-24T08:25:27.580Z,39.12
2018-12-24T08:28:00.705Z,37.91
2018-12-24T08:30:33.708Z,39.57
2018-12-24T08:33:06.741Z,40.28
2018-12-24T08:35:39.504Z,41.25
2018-12-24T08:38:12.478Z,42.52
2018-12-24T08:40:45.298Z,41.91
2018-12-24T08:43:18.316Z,41.81
2018-12-24T08:45:51.373Z,41.35
2018-12-24T08:48:24.654Z,41.16
2018-12-24T08:50:57.584Z,39.29
2018-12-24T08:53:30.556Z,42.03
2018-12-24T08:56:03.655Z,40.70
2018-12-24T08:58:36.594Z,40.68
2018-12-24T09:01:09.783Z,40.82
2018-12-24T09:03:42.774Z,39.89
2018-12-24T09:06:15.781Z,39.78
2018-12-24T09:08:49.392Z,39.76
2018-12-24T09:11:22.567Z,40.93
2018-12-24T09:13:55.620Z,40.81
2018-12-24T09:16:28.562Z,39.57
2018-12-24T09:19:04.336Z,40.30
2018-12-24T09:21:37.455Z,38.47
2018-12-24T09:24:10.303Z,38.34
2018-12-24T09:26:43.313Z,39.90
2018-12-24T09:29:16.407Z,39.00
2018-12-24T09:31:49.272Z,38.93
2018-12-24T09:34:22.242Z,38.63
2018-12-24T09:36:55.151Z,37.77
2018-12-24T09:39:28.160Z,36.69
2018-12-24T09:42:01.217Z,37.17
2018-12-24T09:44:34.558Z,36.58
2018-12-24T09:47:07.657Z,34.92
2018-12-24T09:49:40.712Z,34.92
2018-12-24T09:52:14.735Z,34.40
2018-12-24T09:54:47.843Z,34.99
2018-12-24T09:57:21.083Z,34.38
2018-12-24T09:59:54.180Z,36.16
2018-12-24T10:02:29.904Z,38.37
2018-12-24T10:05:03.039Z,35.22
2018-12-24T10:07:35.959Z,34.83
2018-12-24T10:10:11.030Z,36.55
2018-12-24T10:12:44.054Z,36.59
2018-12-24T10:15:16.950Z,36.57
2018-12-24T10:17:49.966Z,35.96
2018-12-24T10:20:23.006Z,37.57
2018-12-24T10:22:56.190Z,36.19
2018-12-24T10:25:29.307Z,37.95
2018-12-24T10:28:02.157Z,35.88
2018-12-24T10:30:35.217Z,36.68
2018-12-24T10:33:08.177Z,36.84
2018-12-24T10:35:41.127Z,37.99
2018-12-24T10:38:14.063Z,35.35
2018-12-24T10:40:49.852Z,36.63
2018-12-24T10:43:22.855Z,36.97
2018-12-24T10:45:56.037Z,35.86
2018-12-24T10:48:29.638Z,37.32
2018-12-24T10:51:02.809Z,33.45
2018-12-24T10:53:36.245Z,37.55
2018-12-24T10:56:09.233Z,38.87
2018-12-24T10:58:42.720Z,38.28
2018-12-24T11:01:15.704Z,38.65
2018-12-24T11:03:50.747Z,40.65
2018-12-24T11:06:23.684Z,41.79
2018-12-24T11:08:56.622Z,40.34
2018-12-24T11:11:30.135Z,39.19
2018-12-24T11:14:02.942Z,41.51
2018-12-24T11:16:35.928Z,40.73
2018-12-24T11:19:08.884Z,40.72
2018-12-24T11:21:42.073Z,41.90
2018-12-24T11:24:15.670Z,42.21
2018-12-24T11:26:49.333Z,41.42
2018-12-24T11:29:22.367Z,41.89
2018-12-24T11:31:55.523Z,42.58
2018-12-24T11:34:28.756Z,42.79
2018-12-24T11:37:01.922Z,43.34
2018-12-24T11:39:34.897Z,42.87
2018-12-24T11:42:08.426Z,40.47
2018-12-24T11:44:41.704Z,41.52
2018-12-24T11:47:15.121Z,41.52
2018-12-24T11:49:48.229Z,39.08
2018-12-24T11:52:21.608Z,38.92
2018-12-24T11:54:54.696Z,38.64
2018-12-24T11:57:27.696Z,40.12
2018-12-24T12:00:00.800Z,39.24
2018-12-24T12:02:33.663Z,37.50
2018-12-24T12:05:06.971Z,37.35
2018-12-24T12:07:40.105Z,37.03
2018-12-24T12:10:13.434Z,38.53
2018-12-24T12:12:46.626Z,39.37
2018-12-24T12:15:19.661Z,38.71
2018-12-24T12:17:52.780Z,38.59
2018-12-24T12:20:25.812Z,38.86
2018-12-24T12:22:58.619Z,38.29
2018-12-24T12:25:31.747Z,40.45
2018-12-24T12:28:04.781Z,38.30
2018-12-24T12:30:38.320Z,37.92
2018-12-24T12:33:11.641Z,36.87
2018-12-24T12:35:44.950Z,37.70
2018-12-24T12:38:18.464Z,39.96
2018-12-24T12:40:51.697Z,38.56
2018-12-24T12:43:24.782Z,37.64
2018-12-24T12:45:57.662Z,37.56
2018-12-24T12:48:30.730Z,38.61
2018-12-24T12:51:03.696Z,38.07
2018-12-24T12:53:36.804Z,37.63
2018-12-24T12:56:09.825Z,37.84
2018-12-24T12:58:42.860Z,38.36
2018-12-24T13:01:15.986Z,38.20
2018-12-24T13:03:49.062Z,38.44
2018-12-24T13:06:22.134Z,39.09
2018-12-24T13:08:55.257Z,38.40
2018-12-24T13:11:28.174Z,38.55
2018-12-24T13:14:01.378Z,38.54
2018-12-24T13:16:34.485Z,38.51
2018-12-24T13:19:07.714Z,38.98
2018-12-24T13:21:41.945Z,39.82
2018-12-24T13:24:15.131Z,38.58
2018-12-24T13:26:48.170Z,43.83
2018-12-24T13:29:21.163Z,40.25
2018-12-24T13:31:54.586Z,39.42
2018-12-24T13:34:27.779Z,40.86
2018-12-24T13:37:00.890Z,40.86
2018-12-24T13:39:33.877Z,40.56
2018-12-24T13:42:06.760Z,41.59
2018-12-24T13:44:40.065Z,40.92
2018-12-24T13:47:13.267Z,41.10
2018-12-24T13:49:46.313Z,40.51
2018-12-24T13:52:19.516Z,42.61
2018-12-24T13:54:52.793Z,42.01
2018-12-24T13:57:26.411Z,40.86
2018-12-24T13:59:59.619Z,40.76
2018-12-24T14:02:32.595Z,41.82
2018-12-24T14:05:05.500Z,43.45
2018-12-24T14:07:38.502Z,42.02
2018-12-24T14:10:11.514Z,43.35
2018-12-24T14:12:44.694Z,41.31
2018-12-24T14:15:17.591Z,41.84
2018-12-24T14:17:50.622Z,41.18
2018-12-24T14:20:23.676Z,43.01
2018-12-24T14:22:56.794Z,44.04
2018-12-24T14:25:29.762Z,42.17
2018-12-24T14:28:03.124Z,42.04
2018-12-24T14:30:39.158Z,44.05
2018-12-24T14:33:12.175Z,44.83
2018-12-24T14:35:45.162Z,44.11
2018-12-24T14:38:17.964Z,46.52
2018-12-24T14:40:51.625Z,46.15
2018-12-24T14:43:25.020Z,45.70
2018-12-24T14:45:58.100Z,45.92
2018-12-24T14:48:31.109Z,44.87
2018-12-24T14:51:04.208Z,46.08
2018-12-24T14:53:37.466Z,46.12
2018-12-24T14:56:10.487Z,45.61
2018-12-24T14:58:43.361Z,45.83
2018-12-24T15:01:16.594Z,46.79
2018-12-24T15:03:49.800Z,46.01
2018-12-24T15:06:22.822Z,46.62
2018-12-24T15:08:55.796Z,46.12
2018-12-24T15:11:28.735Z,47.20
2018-12-24T15:14:02.364Z,48.96
2018-12-24T15:16:35.947Z,47.69
2018-12-24T15:19:09.142Z,45.65
2018-12-24T15:21:42.298Z,45.99
2018-12-24T15:24:15.574Z,45.00
2018-12-24T15:26:48.670Z,47.34
2018-12-24T15:29:21.675Z,48.52
2018-12-24T15:31:54.755Z,46.17
2018-12-24T15:34:27.679Z,45.33
2018-12-24T15:37:00.665Z,45.45
2018-12-24T15:39:33.554Z,45.19
2018-12-24T15:42:06.580Z,45.56
2018-12-24T15:44:39.533Z,45.38
2018-12-24T15:47:12.876Z,45.38
2018-12-24T15:49:46.317Z,46.14
2018-12-24T15:52:19.176Z,45.08
2018-12-24T15:54:52.309Z,45.53
2018-12-24T15:57:25.339Z,45.57
2018-12-24T15:59:58.320Z,45.53
2018-12-24T16:02:31.556Z,45.36
2018-12-24T16:05:07.293Z,45.23
2018-12-24T16:07:40.379Z,45.86
2018-12-24T16:10:13.469Z,46.03
2018-12-24T16:12:46.558Z,46.43
2018-12-24T16:15:19.595Z,46.71
2018-12-24T16:17:52.702Z,46.68
2018-12-24T16:20:25.948Z,47.24
2018-12-24T16:22:58.987Z,47.65
2018-12-24T16:25:31.945Z,47.73
2018-12-24T16:28:04.732Z,47.38
2018-12-24T16:30:37.703Z,48.93
2018-12-24T16:33:11.607Z,48.76
2018-12-24T16:35:44.598Z,48.63
2018-12-24T16:38:17.565Z,48.85
2018-12-24T16:40:50.707Z,49.14
2018-12-24T16:43:24.168Z,52.07
2018-12-24T16:45:57.260Z,51.69
2018-12-24T16:48:30.605Z,50.79
2018-12-24T16:51:03.752Z,52.21
2018-12-24T16:53:40.620Z,52.54
2018-12-24T16:56:12.481Z,52.96
2018-12-24T16:58:45.431Z,52.24
2018-12-24T17:01:18.839Z,52.56
2018-12-24T17:03:52.003Z,52.58
2018-12-24T17:06:25.007Z,53.12
2018-12-24T17:09:00.123Z,53.52
2018-12-24T17:11:32.656Z,54.41
2018-12-24T17:14:05.899Z,54.53
2018-12-24T17:16:39.072Z,54.73
2018-12-24T17:19:15.597Z,53.85
2018-12-24T17:21:48.436Z,54.22
2018-12-24T17:24:21.783Z,54.71
2018-12-24T17:26:55.019Z,55.02
2018-12-24T17:29:28.068Z,55.25
2018-12-24T17:32:01.253Z,55.94
2018-12-24T17:34:34.173Z,56.17
2018-12-24T17:37:06.739Z,56.59
2018-12-24T17:39:40.217Z,56.19
2018-12-24T17:42:13.456Z,56.75
2018-12-24T17:44:46.322Z,56.88
2018-12-24T17:47:20.146Z,57.11
2018-12-24T17:49:53.253Z,57.29
2018-12-24T17:52:26.410Z,57.77
2018-12-24T17:54:59.478Z,58.06
2018-12-24T17:57:32.608Z,57.62
2018-12-24T18:00:07.298Z,57.55
2018-12-24T18:02:40.657Z,57.63
2018-12-24T18:05:14.481Z,58.09
2018-12-24T18:07:47.748Z,57.29
2018-12-24T18:10:20.934Z,58.35
2018-12-24T18:12:53.820Z,58.50
2018-12-24T18:15:29.914Z,59.10
2018-12-24T18:18:02.857Z,59.56
2018-12-24T18:20:35.845Z,59.27
2018-12-24T18:23:09.001Z,59.27
2018-12-24T18:25:42.497Z,59.58
2018-12-24T18:28:15.789Z,59.74
2018-12-24T18:30:48.695Z,60.32
2018-12-24T18:33:21.615Z,60.01
2018-12-24T18:35:54.520Z,61.08
2018-12-24T18:38:27.844Z,60.72
2018-12-24T18:41:00.977Z,60.79
2018-12-24T18:43:33.899Z,61.05
2018-12-24T18:46:07.187Z,60.87
2018-12-24T18:48:40.321Z,61.37
2018-12-24T18:51:13.439Z,60.48
2018-12-24T18:53:46.384Z,60.87
2018-12-24T18:56:19.534Z,61.54
2018-12-24T18:58:52.834Z,62.31
2018-12-24T19:01:26.171Z,62.11
2018-12-24T19:03:59.678Z,63.10
2018-12-24T19:06:32.415Z,61.74
2018-12-24T19:09:06.846Z,64.52
2018-12-24T19:11:41.969Z,64.52
2018-12-24T19:14:14.927Z,64.43
2018-12-24T19:16:47.974Z,64.50
2018-12-24T19:19:21.000Z,65.84
2018-12-24T19:21:54.154Z,65.58
2018-12-24T19:24:27.158Z,65.66
2018-12-24T19:27:00.175Z,64.92
2018-12-24T19:29:32.961Z,65.37
2018-12-24T19:32:06.426Z,65.80
2018-12-24T19:34:39.487Z,64.68
2018-12-24T19:37:12.518Z,65.18
2018-12-24T19:39:45.576Z,64.28
2018-12-24T19:42:18.382Z,64.84
2018-12-24T19:44:51.409Z,65.33
2018-12-24T19:47:24.625Z,64.30
2018-12-24T19:49:58.059Z,64.75
2018-12-24T19:52:31.101Z,64.85
2018-12-24T19:55:04.048Z,65.04
2018-12-24T19:57:36.845Z,64.70
2018-12-24T20:00:10.878Z,65.39
2018-12-24T20:02:44.062Z,64.96
2018-12-24T20:05:17.159Z,65.30
2018-12-24T20:07:50.516Z,65.21
2018-12-24T20:10:23.387Z,65.54
2018-12-24T20:12:57.275Z,65.28
2018-12-24T20:15:31.013Z,64.84
2018-12-24T20:18:04.015Z,65.33
2018-12-24T20:20:37.397Z,65.50
2018-12-24T20:23:10.823Z,65.25
2018-12-24T20:25:43.967Z,65.41
2018-12-24T20:28:17.386Z,65.19
2018-12-24T20:30:50.594Z,64.59
2018-12-24T20:33:23.733Z,64.24
2018-12-24T20:35:56.990Z,63.60
2018-12-24T20:38:36.986Z,63.58
2018-12-24T20:41:04.093Z,63.92
2018-12-24T20:43:37.465Z,63.54
2018-12-24T20:46:12.817Z,63.69
2018-12-24T20:48:46.044Z,63.58
2018-12-24T20:51:19.087Z,63.64
2018-12-24T20:53:52.070Z,63.97
2018-12-24T20:56:25.203Z,63.98
2018-12-24T20:58:58.270Z,63.77
2018-12-24T21:01:31.285Z,63.71
2018-12-24T21:04:04.346Z,63.89
2018-12-24T21:06:37.281Z,63.70
2018-12-24T21:09:10.227Z,63.17
2018-12-24T21:11:43.390Z,63.04
2018-12-24T21:14:16.372Z,62.49
2018-12-24T21:16:52.715Z,62.35
2018-12-24T21:19:25.906Z,63.21
2018-12-24T21:21:59.185Z,63.02
2018-12-24T21:24:32.163Z,62.92
2018-12-24T21:27:05.528Z,62.54
2018-12-24T21:29:38.684Z,62.86
2018-12-24T21:32:11.740Z,62.83
2018-12-24T21:34:44.693Z,63.01
2018-12-24T21:37:17.678Z,63.03
2018-12-24T21:39:50.539Z,62.10
2018-12-24T21:42:29.698Z,60.88
2018-12-24T21:45:02.752Z,60.92
2018-12-24T21:47:35.601Z,60.78
2018-12-24T21:50:08.506Z,60.54
2018-12-24T21:52:41.592Z,60.35
2018-12-24T21:55:14.445Z,59.66
2018-12-24T21:57:47.554Z,60.03
2018-12-24T22:00:20.761Z,59.93
2018-12-24T22:02:53.752Z,60.03
2018-12-24T22:05:26.693Z,59.49
2018-12-24T22:07:59.807Z,59.81
2018-12-24T22:10:32.804Z,59.25
2018-12-24T22:13:05.697Z,58.80
2018-12-24T22:15:38.678Z,58.84
2018-12-24T22:18:11.903Z,58.74
2018-12-24T22:20:45.317Z,58.53
2018-12-24T22:23:18.333Z,58.96
2018-12-24T22:25:51.257Z,59.10
2018-12-24T22:28:24.476Z,59.18
2018-12-24T22:30:57.525Z,59.51
2018-12-24T22:33:30.587Z,60.17
2018-12-24T22:36:03.250Z,59.74
2018-12-24T22:38:36.433Z,59.06
2018-12-24T22:41:10.060Z,59.96
2018-12-24T22:43:43.096Z,59.56
2018-12-24T22:46:16.064Z,59.35
2018-12-24T22:48:49.045Z,59.52
2018-12-24T22:51:22.059Z,59.48
2018-12-24T22:53:55.135Z,59.06
2018-12-24T22:56:28.197Z,58.92
2018-12-24T22:59:01.227Z,59.24
2018-12-24T23:01:34.326Z,58.82
2018-12-24T23:04:07.065Z,59.12
2018-12-24T23:06:40.040Z,59.12
2018-12-24T23:09:13.354Z,57.99
2018-12-24T23:11:46.841Z,58.31
2018-12-24T23:14:19.913Z,57.66
2018-12-24T23:16:53.085Z,55.77
2018-12-24T23:19:26.256Z,56.70
2018-12-24T23:21:59.318Z,56.12
2018-12-24T23:24:32.191Z,55.18
2018-12-24T23:27:05.208Z,55.61
2018-12-24T23:29:38.296Z,54.14
2018-12-24T23:32:11.551Z,53.57
2018-12-24T23:34:44.253Z,52.83
2018-12-24T23:37:17.283Z,52.84
2018-12-24T23:39:50.354Z,52.09
2018-12-24T23:42:23.334Z,50.59
2018-12-24T23:44:56.414Z,50.81
2018-12-24T23:47:29.433Z,50.02
2018-12-24T23:50:02.171Z,49.64
2018-12-24T23:52:35.775Z,48.84
2018-12-24T23:55:09.520Z,49.27
2018-12-24T23:57:42.618Z,49.28
